Air Navigation Services of Czech Republic  
Last data update:  28.10.2020 05:32:30 UTC česká verze
   METEO Page displayed:  28.10.2020 05:33:52 UTC  
help
METAR EDDB 280520Z 19013KT 9999 BKN037 09/06 Q1008 NOSIG=
METAR EDDC 280520Z 14007KT CAVOK 08/04 Q1009 NOSIG=
METAR EDDE 280520Z 20013KT 9999 FEW023 SCT043 08/05 Q1008 TEMPO 20015G25KT=
METAR EDDF 280520Z 18006KT 9999 -RADZ FEW005 BKN007 BKN017 10/09 Q1009 TEMPO BKN012=
METAR EDDM 280520Z VRB02KT 9999 FEW023 BKN035 03/02 Q1014 NOSIG=
METAR EDDN 280520Z 13008KT 9999 BKN028 07/05 Q1012 NOSIG=
METAR EDDP 280520Z 19013KT 170V230 9999 SCT030 10/05 Q1008 TEMPO 19015G25KT=
METAR EDDT 280520Z 19010KT 9999 -RA BKN036 09/06 Q1007 NOSIG=
METAR EDQM 280520Z 21013KT 2700 DZ BR BKN006 OVC009 06/05 Q1010=
METAR EPBY 280530Z 18007KT CAVOK 06/04 Q1012=
METAR EPGD 280530Z 17008KT CAVOK 06/05 Q1010=
METAR EPKK 280530Z VRB01KT 1600 R25/1000D BR FEW001 BKN010 08/07 Q1015=
METAR EPKT 280530Z 13006KT 5000 BR FEW015 OVC018 10/09 Q1014=
METAR EPLL 280530Z 05001KT 0650 R25/1400U FG NSC 05/05 Q1014=
METAR EPPO 280530Z 18008KT CAVOK 05/04 Q1012=
METAR EPRZ 280530Z VRB02KT 0200 R27/0450N FG NSC 03/03 Q1016=
METAR EPWA 280530Z 15003KT 3500 MIFG BR NSC 08/08 Q1014 TEMPO 2000 BR=
METAR EPWR 280530Z 17007KT CAVOK 06/04 Q1013=
METAR LHBP 280530Z VRB02KT 3500 R13R/P2000N R13L/0650D BCFG BR NSC 08/08 Q1016 TEMPO 1200 PRFG BKN002=
METAR LHSM 280515Z AUTO 31003KT CAVOK 06/06 Q1016=
METAR LKBC 280530Z AUTO 07005KT 0150 FG VV001 01/00 Q1014=
METAR LKCV 280530Z 16005KT 130V190 CAVOK 04/02 Q1014 NOSIG RMK BLU BLU=
METAR LKKB 280530Z 18007KT CAVOK 03/02 Q1013 NOSIG RMK BLU BLU=
METAR LKKU NIL
METAR LKKV 280500Z 19003KT 130V270 CAVOK 05/02 Q1011 RMK REG QNH 1009=
METAR LKLN 280530Z AUTO 00000KT 7000 FEW100 BKN200 BKN230 M00/M00 Q1013=
METAR LKMT 280530Z 20004KT 160V230 6000 -RA OVC023 09/09 Q1015 TEMPO 4000 BR RMK REG QNH 1009=
METAR LKNA 280530Z 35002KT 0900 R30/2000 FG NSC 03/03 Q1014 NOSIG RMK AMB AMB=
SPECI LKPD 280530Z 00000KT 0400 R27/P2000N FG NSC 01/01 Q1014 RMK RED=
METAR LKPJ 280530Z AUTO 00000KT 3700 BR OVC023 08/07 Q1015=
METAR LKPR 280530Z 15009KT CAVOK 04/02 Q1012 NOSIG RMK REG QNH 1009=
METAR LKTB 280530Z 28002KT 0900 R27/P2000N FG OVC003 07/07 Q1015 TEMPO 0700 FG RMK REG QNH 1009=
METAR LKVO NIL
METAR LOWI 280520Z VRB01KT 9999 FEW005 BKN080 02/01 Q1017 R08/29//95 NOSIG=
METAR LOWL 280520Z 03003KT 0400 R26/0550N FG VV001 03/03 Q1016 TEMPO 0800=
METAR LOWS 280520Z 15013KT CAVOK 04/02 Q1015 NOSIG=
METAR LOWW 280520Z VRB01KT 9999 FEW018 BKN020 08/06 Q1016 NOSIG=
METAR LZIB 280530Z 20003KT 9999 BKN022 10/08 Q1015 NOSIG=
METAR LZKZ 280530Z VRB01KT 0500 R01/0250N FG FEW001 06/05 Q1016 NOSIG=
METAR LZMC 280500Z 29002KT 6000 FEW002 OVC020 09/08 Q1016=
METAR LZPP 280500Z 06002KT 9999 SCT013 OVC020 11/09 Q1015=
SPECI LZSL 280513Z 20001KT 0600 R36/0400D FG FEW001 07/07 Q1016=
METAR LZTT 280530Z 26006KT 9999 FEW053 01/01 Q1016 NOSIG=
METAR LZZI 280500Z VRB02KT 4200 BR BKN043 BKN084 09/08 Q1015=